sensor_id;sensor_type;location;lat;lon;timestamp;P1;durP1;ratioP1;P2;durP2;ratioP2
16837;SDS011;19510;54.486;9.046;2022-10-16T00:01:03;4.45;;;2.30;;
16837;SDS011;19510;54.486;9.046;2022-10-16T00:03:33;9.25;;;2.15;;
16837;SDS011;19510;54.486;9.046;2022-10-16T00:05:59;4.65;;;2.00;;
16837;SDS011;19510;54.486;9.046;2022-10-16T00:08:25;7.97;;;2.08;;
16837;SDS011;19510;54.486;9.046;2022-10-16T00:10:51;7.18;;;1.90;;
16837;SDS011;19510;54.486;9.046;2022-10-16T00:13:17;4.93;;;1.90;;
16837;SDS011;19510;54.486;9.046;2022-10-16T00:15:44;2.78;;;1.70;;
16837;SDS011;19510;54.486;9.046;2022-10-16T00:18:11;3.80;;;1.60;;
16837;SDS011;19510;54.486;9.046;2022-10-16T00:20:37;7.72;;;1.80;;
16837;SDS011;19510;54.486;9.046;2022-10-16T00:23:03;5.13;;;1.80;;
16837;SDS011;19510;54.486;9.046;2022-10-16T00:25:30;6.18;;;1.70;;
16837;SDS011;19510;54.486;9.046;2022-10-16T00:27:58;3.40;;;1.50;;
16837;SDS011;19510;54.486;9.046;2022-10-16T00:30:24;4.43;;;1.70;;
16837;SDS011;19510;54.486;9.046;2022-10-16T00:32:52;4.25;;;1.55;;
16837;SDS011;19510;54.486;9.046;2022-10-16T00:35:18;3.05;;;1.45;;
16837;SDS011;19510;54.486;9.046;2022-10-16T00:37:43;8.90;;;2.03;;
16837;SDS011;19510;54.486;9.046;2022-10-16T00:40:09;9.27;;;1.85;;
16837;SDS011;19510;54.486;9.046;2022-10-16T00:42:35;5.32;;;2.05;;
16837;SDS011;19510;54.486;9.046;2022-10-16T00:45:01;6.10;;;1.60;;
16837;SDS011;19510;54.486;9.046;2022-10-16T00:47:28;5.47;;;1.70;;
16837;SDS011;19510;54.486;9.046;2022-10-16T00:52:58;5.28;;;1.83;;
16837;SDS011;19510;54.486;9.046;2022-10-16T00:55:25;11.48;;;1.67;;
16837;SDS011;19510;54.486;9.046;2022-10-16T00:57:53;10.13;;;1.70;;
16837;SDS011;19510;54.486;9.046;2022-10-16T01:00:23;8.95;;;2.10;;
16837;SDS011;19510;54.486;9.046;2022-10-16T01:03:00;5.38;;;1.75;;
16837;SDS011;19510;54.486;9.046;2022-10-16T01:05:30;8.52;;;2.03;;
16837;SDS011;19510;54.486;9.046;2022-10-16T01:08:14;7.15;;;2.05;;
16837;SDS011;19510;54.486;9.046;2022-10-16T01:13:42;10.48;;;2.65;;
16837;SDS011;19510;54.486;9.046;2022-10-16T01:16:21;8.45;;;2.33;;
16837;SDS011;19510;54.486;9.046;2022-10-16T01:19:14;7.43;;;3.28;;
16837;SDS011;19510;54.486;9.046;2022-10-16T01:21:51;2.92;;;1.85;;
16837;SDS011;19510;54.486;9.046;2022-10-16T01:24:38;9.50;;;1.90;;
16837;SDS011;19510;54.486;9.046;2022-10-16T01:32:36;5.72;;;1.60;;
16837;SDS011;19510;54.486;9.046;2022-10-16T01:35:03;6.10;;;1.45;;
16837;SDS011;19510;54.486;9.046;2022-10-16T01:40:02;5.78;;;1.65;;
16837;SDS011;19510;54.486;9.046;2022-10-16T01:42:36;6.45;;;1.70;;
16837;SDS011;19510;54.486;9.046;2022-10-16T01:45:07;5.13;;;1.70;;
16837;SDS011;19510;54.486;9.046;2022-10-16T01:47:36;5.45;;;1.70;;
16837;SDS011;19510;54.486;9.046;2022-10-16T01:50:04;6.32;;;1.50;;
16837;SDS011;19510;54.486;9.046;2022-10-16T01:52:32;4.43;;;1.23;;
16837;SDS011;19510;54.486;9.046;2022-10-16T01:55:02;5.88;;;1.77;;
16837;SDS011;19510;54.486;9.046;2022-10-16T01:57:31;4.05;;;1.52;;
16837;SDS011;19510;54.486;9.046;2022-10-16T02:00:00;5.82;;;1.70;;
16837;SDS011;19510;54.486;9.046;2022-10-16T02:02:29;7.15;;;1.95;;
16837;SDS011;19510;54.486;9.046;2022-10-16T02:05:08;4.25;;;1.63;;
16837;SDS011;19510;54.486;9.046;2022-10-16T02:07:43;5.38;;;1.70;;
16837;SDS011;19510;54.486;9.046;2022-10-16T02:10:09;7.50;;;1.70;;
16837;SDS011;19510;54.486;9.046;2022-10-16T02:12:36;4.85;;;1.58;;
16837;SDS011;19510;54.486;9.046;2022-10-16T02:15:06;2.55;;;1.38;;
16837;SDS011;19510;54.486;9.046;2022-10-16T02:17:32;5.18;;;1.55;;
16837;SDS011;19510;54.486;9.046;2022-10-16T02:19:57;9.68;;;2.33;;
16837;SDS011;19510;54.486;9.046;2022-10-16T02:27:30;5.95;;;1.80;;
16837;SDS011;19510;54.486;9.046;2022-10-16T02:30:16;3.28;;;1.30;;
16837;SDS011;19510;54.486;9.046;2022-10-16T02:32:48;5.15;;;1.30;;
16837;SDS011;19510;54.486;9.046;2022-10-16T02:35:15;4.75;;;1.98;;
16837;SDS011;19510;54.486;9.046;2022-10-16T02:37:43;5.38;;;1.70;;
16837;SDS011;19510;54.486;9.046;2022-10-16T02:40:10;6.68;;;1.38;;
16837;SDS011;19510;54.486;9.046;2022-10-16T02:42:38;10.07;;;2.15;;
16837;SDS011;19510;54.486;9.046;2022-10-16T02:45:05;4.20;;;1.42;;
16837;SDS011;19510;54.486;9.046;2022-10-16T02:47:33;4.53;;;1.42;;
16837;SDS011;19510;54.486;9.046;2022-10-16T02:49:58;4.30;;;1.70;;
16837;SDS011;19510;54.486;9.046;2022-10-16T02:52:24;5.57;;;1.50;;
16837;SDS011;19510;54.486;9.046;2022-10-16T02:54:50;4.00;;;1.45;;
16837;SDS011;19510;54.486;9.046;2022-10-16T02:57:16;5.90;;;1.75;;
16837;SDS011;19510;54.486;9.046;2022-10-16T02:59:42;5.97;;;1.58;;
16837;SDS011;19510;54.486;9.046;2022-10-16T03:02:07;9.82;;;1.73;;
16837;SDS011;19510;54.486;9.046;2022-10-16T03:04:33;4.88;;;1.90;;
16837;SDS011;19510;54.486;9.046;2022-10-16T03:06:58;5.28;;;1.52;;
16837;SDS011;19510;54.486;9.046;2022-10-16T03:09:25;6.13;;;1.90;;
16837;SDS011;19510;54.486;9.046;2022-10-16T03:11:50;8.65;;;1.85;;
16837;SDS011;19510;54.486;9.046;2022-10-16T03:14:17;5.72;;;1.55;;
16837;SDS011;19510;54.486;9.046;2022-10-16T03:16:42;9.98;;;2.17;;
16837;SDS011;19510;54.486;9.046;2022-10-16T03:19:08;5.50;;;1.70;;
16837;SDS011;19510;54.486;9.046;2022-10-16T03:21:33;5.75;;;2.03;;
16837;SDS011;19510;54.486;9.046;2022-10-16T03:23:59;2.67;;;1.30;;
16837;SDS011;19510;54.486;9.046;2022-10-16T03:26:25;8.02;;;2.58;;
16837;SDS011;19510;54.486;9.046;2022-10-16T03:28:50;5.28;;;1.80;;
16837;SDS011;19510;54.486;9.046;2022-10-16T03:31:16;7.45;;;1.58;;
16837;SDS011;19510;54.486;9.046;2022-10-16T03:33:44;6.53;;;2.00;;
16837;SDS011;19510;54.486;9.046;2022-10-16T03:36:09;5.43;;;1.60;;
16837;SDS011;19510;54.486;9.046;2022-10-16T03:38:35;5.63;;;2.10;;
16837;SDS011;19510;54.486;9.046;2022-10-16T03:41:01;5.63;;;1.65;;
16837;SDS011;19510;54.486;9.046;2022-10-16T03:43:26;8.23;;;1.63;;
16837;SDS011;19510;54.486;9.046;2022-10-16T03:45:52;3.72;;;1.45;;
16837;SDS011;19510;54.486;9.046;2022-10-16T03:48:18;5.45;;;2.13;;
16837;SDS011;19510;54.486;9.046;2022-10-16T03:50:44;5.18;;;1.73;;
16837;SDS011;19510;54.486;9.046;2022-10-16T03:53:11;4.10;;;1.40;;
16837;SDS011;19510;54.486;9.046;2022-10-16T03:55:37;4.68;;;1.40;;
16837;SDS011;19510;54.486;9.046;2022-10-16T03:58:02;6.72;;;2.00;;
16837;SDS011;19510;54.486;9.046;2022-10-16T04:00:28;10.80;;;1.98;;
16837;SDS011;19510;54.486;9.046;2022-10-16T04:02:53;6.22;;;1.67;;
16837;SDS011;19510;54.486;9.046;2022-10-16T04:05:19;7.18;;;1.52;;
16837;SDS011;19510;54.486;9.046;2022-10-16T04:07:45;6.63;;;1.63;;
16837;SDS011;19510;54.486;9.046;2022-10-16T04:10:10;8.85;;;2.00;;
16837;SDS011;19510;54.486;9.046;2022-10-16T04:12:36;7.00;;;1.75;;
16837;SDS011;19510;54.486;9.046;2022-10-16T04:15:01;6.68;;;2.03;;
16837;SDS011;19510;54.486;9.046;2022-10-16T04:17:27;4.40;;;1.40;;
16837;SDS011;19510;54.486;9.046;2022-10-16T04:19:53;4.72;;;1.88;;
16837;SDS011;19510;54.486;9.046;2022-10-16T04:22:18;3.55;;;1.75;;
16837;SDS011;19510;54.486;9.046;2022-10-16T04:24:44;7.22;;;1.80;;
16837;SDS011;19510;54.486;9.046;2022-10-16T04:27:10;11.18;;;2.25;;
16837;SDS011;19510;54.486;9.046;2022-10-16T04:29:35;6.25;;;2.22;;
16837;SDS011;19510;54.486;9.046;2022-10-16T04:32:01;7.10;;;2.08;;
16837;SDS011;19510;54.486;9.046;2022-10-16T04:34:27;8.50;;;2.25;;
16837;SDS011;19510;54.486;9.046;2022-10-16T04:36:52;9.63;;;1.95;;
16837;SDS011;19510;54.486;9.046;2022-10-16T04:39:18;3.28;;;1.73;;
16837;SDS011;19510;54.486;9.046;2022-10-16T04:41:43;5.38;;;1.60;;
16837;SDS011;19510;54.486;9.046;2022-10-16T04:44:09;7.15;;;1.83;;
16837;SDS011;19510;54.486;9.046;2022-10-16T04:46:35;6.03;;;1.45;;
16837;SDS011;19510;54.486;9.046;2022-10-16T04:49:00;6.07;;;1.60;;
16837;SDS011;19510;54.486;9.046;2022-10-16T04:51:26;9.35;;;2.00;;
16837;SDS011;19510;54.486;9.046;2022-10-16T04:53:52;2.58;;;1.40;;
16837;SDS011;19510;54.486;9.046;2022-10-16T04:56:19;4.82;;;3.00;;
16837;SDS011;19510;54.486;9.046;2022-10-16T04:58:46;6.80;;;1.75;;
16837;SDS011;19510;54.486;9.046;2022-10-16T05:01:12;8.90;;;1.80;;
16837;SDS011;19510;54.486;9.046;2022-10-16T05:03:38;5.60;;;1.75;;
16837;SDS011;19510;54.486;9.046;2022-10-16T05:06:05;6.63;;;2.00;;
16837;SDS011;19510;54.486;9.046;2022-10-16T05:08:31;8.05;;;1.85;;
16837;SDS011;19510;54.486;9.046;2022-10-16T05:10:57;5.68;;;1.63;;
16837;SDS011;19510;54.486;9.046;2022-10-16T05:13:22;6.55;;;1.52;;
16837;SDS011;19510;54.486;9.046;2022-10-16T05:15:48;5.38;;;1.70;;
16837;SDS011;19510;54.486;9.046;2022-10-16T05:18:14;3.75;;;1.50;;
16837;SDS011;19510;54.486;9.046;2022-10-16T05:20:40;7.35;;;1.20;;
16837;SDS011;19510;54.486;9.046;2022-10-16T05:23:06;6.13;;;1.55;;
16837;SDS011;19510;54.486;9.046;2022-10-16T05:25:32;5.38;;;1.35;;
16837;SDS011;19510;54.486;9.046;2022-10-16T05:27:58;4.50;;;2.22;;
16837;SDS011;19510;54.486;9.046;2022-10-16T05:30:24;6.57;;;1.63;;
16837;SDS011;19510;54.486;9.046;2022-10-16T05:32:50;7.05;;;2.10;;
16837;SDS011;19510;54.486;9.046;2022-10-16T05:35:18;4.85;;;1.40;;
16837;SDS011;19510;54.486;9.046;2022-10-16T05:37:45;6.03;;;1.20;;
16837;SDS011;19510;54.486;9.046;2022-10-16T05:40:11;6.47;;;1.73;;
16837;SDS011;19510;54.486;9.046;2022-10-16T05:42:38;7.93;;;1.67;;
16837;SDS011;19510;54.486;9.046;2022-10-16T05:45:05;7.20;;;1.52;;
16837;SDS011;19510;54.486;9.046;2022-10-16T05:47:31;4.65;;;1.40;;
16837;SDS011;19510;54.486;9.046;2022-10-16T05:49:57;4.72;;;1.83;;
16837;SDS011;19510;54.486;9.046;2022-10-16T05:52:22;8.75;;;2.13;;
16837;SDS011;19510;54.486;9.046;2022-10-16T05:54:48;5.35;;;1.33;;
16837;SDS011;19510;54.486;9.046;2022-10-16T05:57:18;4.38;;;1.33;;
16837;SDS011;19510;54.486;9.046;2022-10-16T05:59:44;8.07;;;1.60;;
16837;SDS011;19510;54.486;9.046;2022-10-16T06:02:13;5.78;;;1.73;;
16837;SDS011;19510;54.486;9.046;2022-10-16T06:04:41;6.10;;;1.23;;
16837;SDS011;19510;54.486;9.046;2022-10-16T06:07:07;7.72;;;2.10;;
16837;SDS011;19510;54.486;9.046;2022-10-16T06:09:33;3.90;;;1.40;;
16837;SDS011;19510;54.486;9.046;2022-10-16T06:11:58;4.82;;;1.48;;
16837;SDS011;19510;54.486;9.046;2022-10-16T06:14:24;6.32;;;1.60;;
16837;SDS011;19510;54.486;9.046;2022-10-16T06:16:50;5.13;;;1.48;;
16837;SDS011;19510;54.486;9.046;2022-10-16T06:19:15;5.65;;;1.35;;
16837;SDS011;19510;54.486;9.046;2022-10-16T06:21:42;3.45;;;1.08;;
16837;SDS011;19510;54.486;9.046;2022-10-16T06:24:10;2.00;;;1.20;;
16837;SDS011;19510;54.486;9.046;2022-10-16T06:26:36;3.50;;;1.35;;
16837;SDS011;19510;54.486;9.046;2022-10-16T06:29:03;6.00;;;1.30;;
16837;SDS011;19510;54.486;9.046;2022-10-16T06:31:31;4.93;;;1.10;;
16837;SDS011;19510;54.486;9.046;2022-10-16T06:34:01;2.22;;;1.08;;
16837;SDS011;19510;54.486;9.046;2022-10-16T06:36:31;3.25;;;1.20;;
16837;SDS011;19510;54.486;9.046;2022-10-16T06:38:57;6.28;;;1.83;;
16837;SDS011;19510;54.486;9.046;2022-10-16T06:41:23;3.17;;;1.10;;
16837;SDS011;19510;54.486;9.046;2022-10-16T06:43:48;5.20;;;1.52;;
16837;SDS011;19510;54.486;9.046;2022-10-16T06:46:15;3.30;;;1.20;;
16837;SDS011;19510;54.486;9.046;2022-10-16T06:48:42;2.30;;;1.13;;
16837;SDS011;19510;54.486;9.046;2022-10-16T06:51:09;2.40;;;1.08;;
16837;SDS011;19510;54.486;9.046;2022-10-16T06:53:39;4.15;;;1.15;;
16837;SDS011;19510;54.486;9.046;2022-10-16T06:56:07;4.03;;;1.20;;
16837;SDS011;19510;54.486;9.046;2022-10-16T06:58:33;13.65;;;6.80;;
16837;SDS011;19510;54.486;9.046;2022-10-16T07:01:00;3.58;;;1.10;;
16837;SDS011;19510;54.486;9.046;2022-10-16T07:03:25;4.90;;;1.30;;
16837;SDS011;19510;54.486;9.046;2022-10-16T07:05:51;4.30;;;1.25;;
16837;SDS011;19510;54.486;9.046;2022-10-16T07:08:19;3.30;;;1.10;;
16837;SDS011;19510;54.486;9.046;2022-10-16T07:10:45;3.97;;;1.63;;
16837;SDS011;19510;54.486;9.046;2022-10-16T07:13:10;7.28;;;1.98;;
16837;SDS011;19510;54.486;9.046;2022-10-16T07:15:39;3.45;;;1.00;;
16837;SDS011;19510;54.486;9.046;2022-10-16T07:18:05;3.63;;;1.15;;
16837;SDS011;19510;54.486;9.046;2022-10-16T07:20:31;4.07;;;1.20;;
16837;SDS011;19510;54.486;9.046;2022-10-16T07:22:57;3.50;;;1.20;;
16837;SDS011;19510;54.486;9.046;2022-10-16T07:25:23;7.05;;;1.10;;
16837;SDS011;19510;54.486;9.046;2022-10-16T07:27:51;2.17;;;0.90;;
16837;SDS011;19510;54.486;9.046;2022-10-16T07:30:16;2.95;;;1.10;;
16837;SDS011;19510;54.486;9.046;2022-10-16T07:32:42;1.67;;;1.10;;
16837;SDS011;19510;54.486;9.046;2022-10-16T07:35:08;3.08;;;1.30;;
16837;SDS011;19510;54.486;9.046;2022-10-16T07:37:33;2.60;;;0.98;;
16837;SDS011;19510;54.486;9.046;2022-10-16T07:39:59;2.88;;;1.27;;
16837;SDS011;19510;54.486;9.046;2022-10-16T07:42:25;2.42;;;0.93;;
16837;SDS011;19510;54.486;9.046;2022-10-16T07:44:51;5.28;;;1.10;;
16837;SDS011;19510;54.486;9.046;2022-10-16T07:47:17;3.47;;;1.48;;
16837;SDS011;19510;54.486;9.046;2022-10-16T07:49:43;3.33;;;1.30;;
16837;SDS011;19510;54.486;9.046;2022-10-16T07:52:11;4.13;;;2.17;;
16837;SDS011;19510;54.486;9.046;2022-10-16T07:54:36;2.75;;;1.20;;
16837;SDS011;19510;54.486;9.046;2022-10-16T07:57:02;4.68;;;0.93;;
16837;SDS011;19510;54.486;9.046;2022-10-16T07:59:28;3.45;;;1.20;;
16837;SDS011;19510;54.486;9.046;2022-10-16T08:01:53;4.32;;;1.40;;
16837;SDS011;19510;54.486;9.046;2022-10-16T08:04:19;3.00;;;1.20;;
16837;SDS011;19510;54.486;9.046;2022-10-16T08:06:45;1.98;;;1.13;;
16837;SDS011;19510;54.486;9.046;2022-10-16T08:09:10;13.15;;;1.75;;
16837;SDS011;19510;54.486;9.046;2022-10-16T08:11:36;2.33;;;1.10;;
16837;SDS011;19510;54.486;9.046;2022-10-16T08:14:04;5.90;;;1.60;;
16837;SDS011;19510;54.486;9.046;2022-10-16T08:16:29;7.28;;;1.33;;
16837;SDS011;19510;54.486;9.046;2022-10-16T08:18:55;1.48;;;1.00;;
16837;SDS011;19510;54.486;9.046;2022-10-16T08:21:21;2.45;;;1.25;;
16837;SDS011;19510;54.486;9.046;2022-10-16T08:23:50;6.63;;;1.52;;
16837;SDS011;19510;54.486;9.046;2022-10-16T08:26:17;3.90;;;1.00;;
16837;SDS011;19510;54.486;9.046;2022-10-16T08:28:44;1.92;;;1.30;;
16837;SDS011;19510;54.486;9.046;2022-10-16T08:31:11;2.58;;;1.20;;
16837;SDS011;19510;54.486;9.046;2022-10-16T08:33:38;3.45;;;1.33;;
16837;SDS011;19510;54.486;9.046;2022-10-16T08:36:06;6.63;;;1.05;;
16837;SDS011;19510;54.486;9.046;2022-10-16T08:38:32;4.68;;;1.38;;
16837;SDS011;19510;54.486;9.046;2022-10-16T08:41:09;5.57;;;1.30;;
16837;SDS011;19510;54.486;9.046;2022-10-16T08:46:48;9.65;;;1.50;;
16837;SDS011;19510;54.486;9.046;2022-10-16T08:49:25;6.40;;;1.52;;
16837;SDS011;19510;54.486;9.046;2022-10-16T08:51:53;8.50;;;1.92;;
16837;SDS011;19510;54.486;9.046;2022-10-16T08:57:18;4.13;;;1.60;;
16837;SDS011;19510;54.486;9.046;2022-10-16T08:59:46;5.07;;;1.80;;
16837;SDS011;19510;54.486;9.046;2022-10-16T09:02:34;9.05;;;1.75;;
16837;SDS011;19510;54.486;9.046;2022-10-16T09:11:16;4.32;;;1.40;;
16837;SDS011;19510;54.486;9.046;2022-10-16T09:16:53;5.72;;;2.10;;
16837;SDS011;19510;54.486;9.046;2022-10-16T09:19:25;4.63;;;1.70;;
16837;SDS011;19510;54.486;9.046;2022-10-16T09:21:59;4.63;;;1.63;;
16837;SDS011;19510;54.486;9.046;2022-10-16T09:24:29;5.60;;;1.67;;
16837;SDS011;19510;54.486;9.046;2022-10-16T09:26:55;6.75;;;1.77;;
16837;SDS011;19510;54.486;9.046;2022-10-16T09:29:24;8.45;;;1.92;;
16837;SDS011;19510;54.486;9.046;2022-10-16T09:31:50;7.20;;;1.80;;
16837;SDS011;19510;54.486;9.046;2022-10-16T09:37:03;4.40;;;1.85;;
16837;SDS011;19510;54.486;9.046;2022-10-16T09:39:54;6.40;;;1.65;;
16837;SDS011;19510;54.486;9.046;2022-10-16T09:44:48;5.80;;;1.58;;
16837;SDS011;19510;54.486;9.046;2022-10-16T09:47:18;4.80;;;1.80;;
16837;SDS011;19510;54.486;9.046;2022-10-16T09:49:56;8.85;;;1.70;;
16837;SDS011;19510;54.486;9.046;2022-10-16T09:52:26;2.53;;;1.80;;
16837;SDS011;19510;54.486;9.046;2022-10-16T09:55:00;9.57;;;1.90;;
16837;SDS011;19510;54.486;9.046;2022-10-16T09:57:31;5.45;;;1.77;;
16837;SDS011;19510;54.486;9.046;2022-10-16T10:00:08;8.48;;;2.00;;
16837;SDS011;19510;54.486;9.046;2022-10-16T10:02:35;8.25;;;1.80;;
16837;SDS011;19510;54.486;9.046;2022-10-16T10:05:04;7.65;;;2.08;;
16837;SDS011;19510;54.486;9.046;2022-10-16T10:07:32;9.88;;;3.00;;
16837;SDS011;19510;54.486;9.046;2022-10-16T10:10:03;5.10;;;1.83;;
16837;SDS011;19510;54.486;9.046;2022-10-16T10:12:30;5.28;;;2.17;;
16837;SDS011;19510;54.486;9.046;2022-10-16T10:15:11;6.60;;;1.95;;
16837;SDS011;19510;54.486;9.046;2022-10-16T10:17:45;6.47;;;1.75;;
16837;SDS011;19510;54.486;9.046;2022-10-16T10:20:21;5.50;;;1.92;;
16837;SDS011;19510;54.486;9.046;2022-10-16T10:22:47;8.93;;;2.05;;
16837;SDS011;19510;54.486;9.046;2022-10-16T10:33:07;8.30;;;1.50;;
16837;SDS011;19510;54.486;9.046;2022-10-16T10:35:45;4.65;;;1.63;;
16837;SDS011;19510;54.486;9.046;2022-10-16T10:44:01;5.63;;;1.80;;
16837;SDS011;19510;54.486;9.046;2022-10-16T10:51:48;8.18;;;1.52;;
16837;SDS011;19510;54.486;9.046;2022-10-16T10:55:00;9.75;;;1.40;;
16837;SDS011;19510;54.486;9.046;2022-10-16T11:00:27;6.45;;;1.40;;
16837;SDS011;19510;54.486;9.046;2022-10-16T11:06:17;7.82;;;1.55;;
16837;SDS011;19510;54.486;9.046;2022-10-16T11:08:53;5.25;;;1.90;;
16837;SDS011;19510;54.486;9.046;2022-10-16T11:11:38;9.85;;;1.77;;
16837;SDS011;19510;54.486;9.046;2022-10-16T11:14:20;3.72;;;1.15;;
16837;SDS011;19510;54.486;9.046;2022-10-16T11:17:16;8.05;;;1.73;;
16837;SDS011;19510;54.486;9.046;2022-10-16T11:25:02;8.00;;;1.42;;
16837;SDS011;19510;54.486;9.046;2022-10-16T11:27:40;5.03;;;1.60;;
16837;SDS011;19510;54.486;9.046;2022-10-16T11:30:29;7.18;;;1.55;;
16837;SDS011;19510;54.486;9.046;2022-10-16T11:35:41;5.10;;;1.60;;
16837;SDS011;19510;54.486;9.046;2022-10-16T11:40:47;10.43;;;1.90;;
16837;SDS011;19510;54.486;9.046;2022-10-16T11:43:24;8.30;;;1.60;;
16837;SDS011;19510;54.486;9.046;2022-10-16T11:46:04;10.13;;;1.65;;
16837;SDS011;19510;54.486;9.046;2022-10-16T11:48:51;7.63;;;1.58;;
16837;SDS011;19510;54.486;9.046;2022-10-16T11:57:18;7.20;;;1.55;;
16837;SDS011;19510;54.486;9.046;2022-10-16T11:59:55;10.90;;;2.50;;
16837;SDS011;19510;54.486;9.046;2022-10-16T12:02:32;4.47;;;1.20;;
16837;SDS011;19510;54.486;9.046;2022-10-16T12:08:14;7.55;;;2.17;;
16837;SDS011;19510;54.486;9.046;2022-10-16T12:10:44;9.57;;;1.55;;
16837;SDS011;19510;54.486;9.046;2022-10-16T12:16:04;11.00;;;1.73;;
16837;SDS011;19510;54.486;9.046;2022-10-16T12:18:31;9.57;;;1.73;;
16837;SDS011;19510;54.486;9.046;2022-10-16T12:20:57;8.40;;;1.73;;
16837;SDS011;19510;54.486;9.046;2022-10-16T12:23:29;12.40;;;1.73;;
16837;SDS011;19510;54.486;9.046;2022-10-16T12:26:00;8.57;;;3.22;;
16837;SDS011;19510;54.486;9.046;2022-10-16T12:28:28;8.93;;;2.30;;
16837;SDS011;19510;54.486;9.046;2022-10-16T12:30:58;7.10;;;1.63;;
16837;SDS011;19510;54.486;9.046;2022-10-16T12:36:02;7.80;;;1.40;;
16837;SDS011;19510;54.486;9.046;2022-10-16T12:38:46;9.40;;;1.58;;
16837;SDS011;19510;54.486;9.046;2022-10-16T12:41:39;6.03;;;1.30;;
16837;SDS011;19510;54.486;9.046;2022-10-16T12:44:05;6.43;;;2.08;;
16837;SDS011;19510;54.486;9.046;2022-10-16T12:46:46;8.13;;;1.52;;
16837;SDS011;19510;54.486;9.046;2022-10-16T12:51:37;9.70;;;1.40;;
16837;SDS011;19510;54.486;9.046;2022-10-16T12:54:16;9.63;;;1.70;;
16837;SDS011;19510;54.486;9.046;2022-10-16T12:59:33;7.82;;;2.00;;
16837;SDS011;19510;54.486;9.046;2022-10-16T13:02:16;12.52;;;2.95;;
16837;SDS011;19510;54.486;9.046;2022-10-16T13:05:05;10.82;;;2.63;;
16837;SDS011;19510;54.486;9.046;2022-10-16T13:10:38;7.90;;;1.73;;
16837;SDS011;19510;54.486;9.046;2022-10-16T13:16:03;8.32;;;1.70;;
16837;SDS011;19510;54.486;9.046;2022-10-16T13:21:17;9.65;;;2.70;;
16837;SDS011;19510;54.486;9.046;2022-10-16T13:23:50;11.80;;;2.10;;
16837;SDS011;19510;54.486;9.046;2022-10-16T13:29:03;8.40;;;2.20;;
16837;SDS011;19510;54.486;9.046;2022-10-16T13:31:32;10.70;;;1.98;;
16837;SDS011;19510;54.486;9.046;2022-10-16T13:33:59;12.23;;;2.28;;
16837;SDS011;19510;54.486;9.046;2022-10-16T13:36:30;10.35;;;2.60;;
16837;SDS011;19510;54.486;9.046;2022-10-16T13:41:34;12.88;;;1.95;;
16837;SDS011;19510;54.486;9.046;2022-10-16T13:44:00;12.38;;;2.92;;
16837;SDS011;19510;54.486;9.046;2022-10-16T13:46:26;14.68;;;2.70;;
16837;SDS011;19510;54.486;9.046;2022-10-16T13:48:58;10.98;;;2.03;;
16837;SDS011;19510;54.486;9.046;2022-10-16T13:51:29;15.07;;;2.65;;
16837;SDS011;19510;54.486;9.046;2022-10-16T13:53:56;10.70;;;2.50;;
16837;SDS011;19510;54.486;9.046;2022-10-16T13:56:24;15.10;;;2.60;;
16837;SDS011;19510;54.486;9.046;2022-10-16T13:59:05;12.55;;;2.78;;
16837;SDS011;19510;54.486;9.046;2022-10-16T14:01:47;19.95;;;4.00;;
16837;SDS011;19510;54.486;9.046;2022-10-16T14:04:13;15.85;;;2.78;;
16837;SDS011;19510;54.486;9.046;2022-10-16T14:10:05;19.20;;;3.13;;
16837;SDS011;19510;54.486;9.046;2022-10-16T14:12:45;18.20;;;3.05;;
16837;SDS011;19510;54.486;9.046;2022-10-16T14:15:20;11.85;;;2.35;;
16837;SDS011;19510;54.486;9.046;2022-10-16T14:17:48;14.35;;;2.42;;
16837;SDS011;19510;54.486;9.046;2022-10-16T14:20:18;21.33;;;2.78;;
16837;SDS011;19510;54.486;9.046;2022-10-16T14:22:46;16.17;;;2.78;;
16837;SDS011;19510;54.486;9.046;2022-10-16T14:30:24;11.82;;;2.30;;
16837;SDS011;19510;54.486;9.046;2022-10-16T14:33:19;8.20;;;2.67;;
16837;SDS011;19510;54.486;9.046;2022-10-16T14:35:56;9.93;;;2.08;;
16837;SDS011;19510;54.486;9.046;2022-10-16T14:38:30;10.25;;;2.17;;
16837;SDS011;19510;54.486;9.046;2022-10-16T14:40:59;9.30;;;1.75;;
16837;SDS011;19510;54.486;9.046;2022-10-16T14:43:29;14.70;;;3.22;;
16837;SDS011;19510;54.486;9.046;2022-10-16T14:46:06;19.85;;;3.83;;
16837;SDS011;19510;54.486;9.046;2022-10-16T14:48:42;14.27;;;3.47;;
16837;SDS011;19510;54.486;9.046;2022-10-16T14:51:14;14.43;;;2.65;;
16837;SDS011;19510;54.486;9.046;2022-10-16T14:53:44;19.77;;;3.53;;
16837;SDS011;19510;54.486;9.046;2022-10-16T14:56:17;14.48;;;3.28;;
16837;SDS011;19510;54.486;9.046;2022-10-16T14:58:45;10.18;;;2.20;;
16837;SDS011;19510;54.486;9.046;2022-10-16T15:01:11;9.98;;;2.55;;
16837;SDS011;19510;54.486;9.046;2022-10-16T15:03:37;8.93;;;2.95;;
16837;SDS011;19510;54.486;9.046;2022-10-16T15:06:11;15.63;;;2.42;;
16837;SDS011;19510;54.486;9.046;2022-10-16T15:08:38;15.13;;;2.05;;
16837;SDS011;19510;54.486;9.046;2022-10-16T15:11:04;14.10;;;2.67;;
16837;SDS011;19510;54.486;9.046;2022-10-16T15:13:31;13.10;;;2.30;;
16837;SDS011;19510;54.486;9.046;2022-10-16T15:15:56;11.40;;;1.85;;
16837;SDS011;19510;54.486;9.046;2022-10-16T15:18:23;10.82;;;2.22;;
16837;SDS011;19510;54.486;9.046;2022-10-16T15:20:50;14.20;;;2.08;;
16837;SDS011;19510;54.486;9.046;2022-10-16T15:23:18;13.10;;;2.10;;
16837;SDS011;19510;54.486;9.046;2022-10-16T15:25:47;12.73;;;1.85;;
16837;SDS011;19510;54.486;9.046;2022-10-16T15:28:20;16.88;;;2.55;;
16837;SDS011;19510;54.486;9.046;2022-10-16T15:30:48;16.42;;;2.17;;
16837;SDS011;19510;54.486;9.046;2022-10-16T15:33:20;14.00;;;1.90;;
16837;SDS011;19510;54.486;9.046;2022-10-16T15:35:52;9.48;;;2.15;;
16837;SDS011;19510;54.486;9.046;2022-10-16T15:38:19;12.75;;;2.53;;
16837;SDS011;19510;54.486;9.046;2022-10-16T15:40:46;16.10;;;2.72;;
16837;SDS011;19510;54.486;9.046;2022-10-16T15:43:14;8.27;;;2.22;;
16837;SDS011;19510;54.486;9.046;2022-10-16T15:45:42;11.57;;;2.40;;
16837;SDS011;19510;54.486;9.046;2022-10-16T15:48:11;10.35;;;2.00;;
16837;SDS011;19510;54.486;9.046;2022-10-16T15:50:40;15.45;;;1.75;;
16837;SDS011;19510;54.486;9.046;2022-10-16T15:53:10;10.60;;;2.00;;
16837;SDS011;19510;54.486;9.046;2022-10-16T15:55:36;15.82;;;2.65;;
16837;SDS011;19510;54.486;9.046;2022-10-16T15:58:03;7.38;;;1.90;;
16837;SDS011;19510;54.486;9.046;2022-10-16T16:00:29;11.73;;;2.47;;
16837;SDS011;19510;54.486;9.046;2022-10-16T16:02:57;13.40;;;1.70;;
16837;SDS011;19510;54.486;9.046;2022-10-16T16:05:23;12.48;;;2.05;;
16837;SDS011;19510;54.486;9.046;2022-10-16T16:07:49;12.57;;;2.03;;
16837;SDS011;19510;54.486;9.046;2022-10-16T16:10:15;13.48;;;2.08;;
16837;SDS011;19510;54.486;9.046;2022-10-16T16:12:41;13.07;;;3.05;;
16837;SDS011;19510;54.486;9.046;2022-10-16T16:15:08;15.68;;;2.45;;
16837;SDS011;19510;54.486;9.046;2022-10-16T16:17:34;9.88;;;2.78;;
16837;SDS011;19510;54.486;9.046;2022-10-16T16:20:01;10.57;;;1.80;;
16837;SDS011;19510;54.486;9.046;2022-10-16T16:22:32;10.13;;;2.55;;
16837;SDS011;19510;54.486;9.046;2022-10-16T16:24:58;11.10;;;2.30;;
16837;SDS011;19510;54.486;9.046;2022-10-16T16:27:24;8.85;;;1.70;;
16837;SDS011;19510;54.486;9.046;2022-10-16T16:29:50;9.18;;;1.83;;
16837;SDS011;19510;54.486;9.046;2022-10-16T16:32:15;10.10;;;2.13;;
16837;SDS011;19510;54.486;9.046;2022-10-16T16:34:41;14.27;;;2.28;;
16837;SDS011;19510;54.486;9.046;2022-10-16T16:40:32;17.48;;;1.70;;
16837;SDS011;19510;54.486;9.046;2022-10-16T16:42:57;10.38;;;1.63;;
16837;SDS011;19510;54.486;9.046;2022-10-16T16:45:23;9.75;;;2.22;;
16837;SDS011;19510;54.486;9.046;2022-10-16T16:47:50;10.35;;;2.03;;
16837;SDS011;19510;54.486;9.046;2022-10-16T16:50:16;12.88;;;2.17;;
16837;SDS011;19510;54.486;9.046;2022-10-16T16:52:46;12.40;;;1.90;;
16837;SDS011;19510;54.486;9.046;2022-10-16T16:55:12;14.63;;;1.83;;
16837;SDS011;19510;54.486;9.046;2022-10-16T16:57:37;8.10;;;1.80;;